createdAt,value
2022-09-23T07:39:02.902Z,22.90
2022-09-23T07:41:31.785Z,23.00
2022-09-23T07:43:55.498Z,23.00
2022-09-23T07:46:17.775Z,23.10
2022-09-23T07:48:39.073Z,23.10
2022-09-23T07:51:00.463Z,23.20
2022-09-23T07:53:21.554Z,23.20
2022-09-23T07:55:42.465Z,23.30
2022-09-23T07:58:03.557Z,23.30
2022-09-23T08:00:24.447Z,23.30
2022-09-23T08:02:48.400Z,23.30
2022-09-23T08:05:11.927Z,23.40
2022-09-23T08:07:34.692Z,23.40
2022-09-23T08:09:55.852Z,23.40
2022-09-23T08:12:18.122Z,23.40
2022-09-23T08:14:39.083Z,23.30
2022-09-23T08:17:00.093Z,23.30
2022-09-23T08:19:21.901Z,23.30
2022-09-23T08:21:43.471Z,23.30
2022-09-23T08:24:04.434Z,23.30
2022-09-23T08:26:25.474Z,23.40
2022-09-23T08:28:48.219Z,23.30
2022-09-23T08:31:09.267Z,23.20
2022-09-23T08:33:30.772Z,23.20
2022-09-23T08:35:52.654Z,23.20
2022-09-23T08:38:13.536Z,23.20
2022-09-23T08:40:42.307Z,23.30
2022-09-23T08:43:07.251Z,23.30
2022-09-23T08:45:29.268Z,23.40
2022-09-23T08:48:10.823Z,23.40
2022-09-23T08:50:42.567Z,23.40
2022-09-23T08:53:05.292Z,23.40
2022-09-23T08:55:46.472Z,23.40
2022-09-23T08:58:25.625Z,23.40
2022-09-23T09:01:11.216Z,23.40
2022-09-23T09:03:55.765Z,23.40
2022-09-23T09:06:20.089Z,23.40
2022-09-23T09:08:42.023Z,23.50
2022-09-23T09:11:03.374Z,23.40
2022-09-23T09:13:31.136Z,23.50
2022-09-23T09:15:59.916Z,23.40
2022-09-23T09:18:24.410Z,23.50
2022-09-23T09:20:57.663Z,23.50
2022-09-23T09:23:23.186Z,23.50
2022-09-23T09:25:46.254Z,23.50
2022-09-23T09:28:36.388Z,23.50
2022-09-23T09:31:01.143Z,23.50
2022-09-23T09:33:25.889Z,23.50
2022-09-23T09:35:53.677Z,23.50
2022-09-23T09:38:15.509Z,23.50
2022-09-23T09:40:43.491Z,23.50
2022-09-23T09:43:04.843Z,23.50
2022-09-23T09:45:29.058Z,23.50
2022-09-23T09:47:50.062Z,23.50
2022-09-23T09:50:14.115Z,23.50
2022-09-23T09:52:39.066Z,23.50
2022-09-23T09:55:12.253Z,23.50
2022-09-23T09:57:37.075Z,23.50
2022-09-23T09:59:58.563Z,23.50
2022-09-23T10:02:30.450Z,23.60
2022-09-23T10:04:57.000Z,23.50
2022-09-23T10:07:24.523Z,23.50
2022-09-23T10:09:49.754Z,23.60
2022-09-23T10:12:15.662Z,23.60
2022-09-23T10:14:37.652Z,23.60
2022-09-23T10:17:05.698Z,23.60
2022-09-23T10:19:29.743Z,23.60
2022-09-23T10:21:57.020Z,23.60
2022-09-23T10:24:23.528Z,23.60
2022-09-23T10:26:50.709Z,23.60
2022-09-23T10:29:41.298Z,23.60
2022-09-23T10:32:14.672Z,23.60
2022-09-23T10:34:35.532Z,23.60
2022-09-23T10:37:03.699Z,23.70
2022-09-23T10:39:43.488Z,23.70
2022-09-23T10:42:39.256Z,23.70
2022-09-23T10:45:37.593Z,23.70
2022-09-23T10:48:10.438Z,23.70
2022-09-23T10:50:31.285Z,23.70
2022-09-23T10:52:52.233Z,23.70
2022-09-23T10:55:13.245Z,23.70
2022-09-23T10:57:53.693Z,23.70
2022-09-23T11:00:18.003Z,23.70
2022-09-23T11:02:51.373Z,23.70
2022-09-23T11:05:15.524Z,23.80
2022-09-23T11:07:37.389Z,23.80
2022-09-23T11:10:28.896Z,23.80
2022-09-23T11:13:04.749Z,23.80
2022-09-23T11:15:25.694Z,23.80
2022-09-23T11:18:05.444Z,23.80
2022-09-23T11:20:26.700Z,23.80
2022-09-23T11:33:19.339Z,23.80
2022-09-23T11:36:10.033Z,23.80
2022-09-23T11:38:42.990Z,23.80
2022-09-23T11:41:17.689Z,23.80
2022-09-23T11:43:40.372Z,23.90
2022-09-23T11:46:08.794Z,23.90
2022-09-23T11:48:29.712Z,23.90
2022-09-23T11:50:57.421Z,23.90
2022-09-23T11:53:23.248Z,23.90
2022-09-23T11:55:56.345Z,23.90
2022-09-23T11:58:25.550Z,23.90
2022-09-23T12:00:59.380Z,23.90
2022-09-23T12:03:38.076Z,23.90
2022-09-23T12:06:07.902Z,23.90
2022-09-23T12:08:30.725Z,23.90
2022-09-23T12:11:10.051Z,23.90
2022-09-23T12:13:31.312Z,24.00
2022-09-23T12:16:25.012Z,24.00
2022-09-23T12:18:46.292Z,24.00
2022-09-23T12:23:46.681Z,23.90
2022-09-23T12:28:44.624Z,23.90
2022-09-23T12:33:33.644Z,23.90
2022-09-23T12:38:28.466Z,23.90
2022-09-23T12:40:51.403Z,24.00
2022-09-23T12:43:35.929Z,24.00
2022-09-23T12:46:20.114Z,24.00
2022-09-23T12:48:58.020Z,24.00
2022-09-23T12:51:19.936Z,24.00
2022-09-23T12:53:40.717Z,24.00
2022-09-23T12:56:14.048Z,24.00
2022-09-23T12:58:39.408Z,24.00
2022-09-23T13:01:17.308Z,24.00
2022-09-23T13:04:00.569Z,24.00
2022-09-23T13:06:39.890Z,24.00
2022-09-23T13:09:02.798Z,24.00
2022-09-23T13:11:28.801Z,24.00
2022-09-23T13:13:50.333Z,24.00
2022-09-23T13:16:20.697Z,24.00
2022-09-23T13:18:54.726Z,24.00
2022-09-23T13:21:23.188Z,24.00
2022-09-23T13:24:04.550Z,24.10
2022-09-23T13:26:25.895Z,24.00
2022-09-23T13:28:59.007Z,24.00
2022-09-23T13:31:21.437Z,24.00
2022-09-23T13:33:45.749Z,24.10
2022-09-23T13:36:11.243Z,24.10
2022-09-23T13:38:33.275Z,24.10
2022-09-23T13:40:56.532Z,24.10
2022-09-23T13:43:17.460Z,24.20
2022-09-23T13:45:40.140Z,24.20
2022-09-23T13:48:03.546Z,24.20
2022-09-23T13:50:24.728Z,24.20
2022-09-23T13:52:46.318Z,24.20
2022-09-23T13:55:23.754Z,24.10
2022-09-23T13:57:45.187Z,24.10
2022-09-23T14:00:15.516Z,24.10
2022-09-23T14:02:42.323Z,24.10
2022-09-23T14:05:10.954Z,24.10
2022-09-23T14:07:32.574Z,24.00
2022-09-23T14:09:55.770Z,24.10
2022-09-23T14:12:22.207Z,24.10
2022-09-23T14:14:43.509Z,24.10
2022-09-23T14:17:06.502Z,24.10
2022-09-23T14:19:27.492Z,24.10
2022-09-23T14:21:49.966Z,24.10
2022-09-23T14:24:11.303Z,24.10
2022-09-23T14:26:32.400Z,24.10
2022-09-23T14:28:54.136Z,24.10
2022-09-23T14:31:15.427Z,24.10
2022-09-23T14:33:39.872Z,24.10
2022-09-23T14:36:07.859Z,24.10
2022-09-23T14:38:48.065Z,24.10
2022-09-23T14:41:17.541Z,24.10
2022-09-23T14:43:38.974Z,24.20
2022-09-23T14:46:00.145Z,24.10
2022-09-23T14:48:25.169Z,24.10
2022-09-23T14:50:52.282Z,24.10
2022-09-23T14:53:22.830Z,24.30
2022-09-23T14:55:44.192Z,24.40
2022-09-23T14:58:07.267Z,24.50
2022-09-23T15:00:28.409Z,24.60
2022-09-23T15:03:00.641Z,24.60
2022-09-23T15:05:22.917Z,24.60
2022-09-23T15:07:47.162Z,24.70
2022-09-23T15:10:10.135Z,24.70
2022-09-23T15:12:31.099Z,24.70
2022-09-23T15:14:57.745Z,24.70
2022-09-23T15:17:26.205Z,24.50
2022-09-23T15:19:52.715Z,24.30
2022-09-23T15:22:16.764Z,24.20
2022-09-23T15:24:40.173Z,24.20
2022-09-23T15:27:01.370Z,24.10
2022-09-23T15:29:22.144Z,24.10
2022-09-23T15:31:43.214Z,24.10
2022-09-23T15:34:05.681Z,24.00
2022-09-23T15:36:27.982Z,24.00
2022-09-23T15:38:49.735Z,24.00
2022-09-23T15:41:11.045Z,24.00
2022-09-23T15:43:32.110Z,24.10
2022-09-23T15:45:54.913Z,24.00
2022-09-23T15:48:24.363Z,24.00
2022-09-23T15:50:46.836Z,24.00
2022-09-23T15:53:08.504Z,24.00
2022-09-23T15:55:29.397Z,24.00
2022-09-23T15:57:50.461Z,24.00
2022-09-23T16:00:12.504Z,24.00
2022-09-23T16:02:33.889Z,24.00
2022-09-23T16:04:54.758Z,23.90
2022-09-23T16:07:17.198Z,23.90
2022-09-23T16:09:38.206Z,24.00
2022-09-23T16:12:03.508Z,24.00
2022-09-23T16:14:24.590Z,24.00
2022-09-23T16:16:48.000Z,24.00
2022-09-23T16:19:08.911Z,24.00
2022-09-23T16:21:29.839Z,24.00
2022-09-23T16:23:51.606Z,24.00
2022-09-23T16:26:14.104Z,23.90
2022-09-23T16:28:35.878Z,24.00
2022-09-23T16:30:58.097Z,23.90
2022-09-23T16:33:19.629Z,24.00
2022-09-23T16:35:40.792Z,24.00
2022-09-23T16:38:02.466Z,24.00
2022-09-23T16:40:24.308Z,24.00
2022-09-23T16:42:46.715Z,24.00
2022-09-23T16:45:08.736Z,24.00
2022-09-23T16:47:49.526Z,24.00
2022-09-23T16:50:20.710Z,24.00
2022-09-23T16:52:42.090Z,24.10
2022-09-23T16:55:03.333Z,24.20
2022-09-23T16:57:24.195Z,24.30
2022-09-23T17:00:03.554Z,24.30
2022-09-23T17:02:43.599Z,24.40
2022-09-23T17:05:05.554Z,24.40
2022-09-23T17:07:26.857Z,24.40
2022-09-23T17:09:47.866Z,24.40
2022-09-23T17:12:17.057Z,24.40
2022-09-23T17:14:38.589Z,24.40
2022-09-23T17:16:59.593Z,24.40
2022-09-23T17:19:20.693Z,24.40
2022-09-23T17:21:42.881Z,24.40
2022-09-23T17:24:03.917Z,24.40
2022-09-23T17:26:26.230Z,24.40
2022-09-23T17:28:48.312Z,24.40
2022-09-23T17:31:09.413Z,24.30
2022-09-23T17:33:31.717Z,24.10
2022-09-23T17:35:53.112Z,24.10
2022-09-23T17:38:14.183Z,24.00
2022-09-23T17:40:41.625Z,24.00
2022-09-23T17:43:02.790Z,24.00
2022-09-23T17:45:24.069Z,24.00
2022-09-23T17:47:55.003Z,24.00
2022-09-23T17:50:16.153Z,24.00
2022-09-23T17:52:37.007Z,24.00
2022-09-23T17:54:57.859Z,24.00
2022-09-23T17:57:18.940Z,23.90
2022-09-23T17:59:39.884Z,23.90
2022-09-23T18:02:00.785Z,23.90
2022-09-23T18:04:22.199Z,23.90
2022-09-23T18:06:43.058Z,23.90
2022-09-23T18:09:05.528Z,23.80
2022-09-23T18:11:27.692Z,23.80
2022-09-23T18:13:53.089Z,23.80
2022-09-23T18:16:13.964Z,23.80
2022-09-23T18:18:34.821Z,23.80
2022-09-23T18:21:02.912Z,23.80
2022-09-23T18:23:26.131Z,23.90
2022-09-23T18:25:47.366Z,23.80
2022-09-23T18:28:08.478Z,23.80
2022-09-23T18:30:32.310Z,23.80
2022-09-23T18:32:53.516Z,23.80
2022-09-23T18:35:14.598Z,23.80
2022-09-23T18:37:35.503Z,23.80
2022-09-23T18:39:56.157Z,23.80
2022-09-23T18:42:16.979Z,23.80
2022-09-23T18:44:38.299Z,23.80
2022-09-23T18:46:59.579Z,23.80
2022-09-23T18:49:39.647Z,23.80
2022-09-23T18:52:00.915Z,23.80
2022-09-23T18:54:25.831Z,23.70
2022-09-23T18:56:47.113Z,23.70
2022-09-23T18:59:09.597Z,23.80
2022-09-23T19:01:30.742Z,23.80
2022-09-23T19:03:58.456Z,23.80
2022-09-23T19:06:21.348Z,23.80
2022-09-23T19:08:42.957Z,23.80
2022-09-23T19:11:05.926Z,23.80
2022-09-23T19:13:26.886Z,23.80
2022-09-23T19:15:48.588Z,23.70
2022-09-23T19:18:10.062Z,23.70
2022-09-23T19:20:31.213Z,23.70
2022-09-23T19:22:52.134Z,23.70
2022-09-23T19:25:13.055Z,23.70
2022-09-23T19:27:35.993Z,23.70
2022-09-23T19:29:57.976Z,23.70
2022-09-23T19:32:19.244Z,23.70
2022-09-23T19:34:40.215Z,23.70
2022-09-23T19:37:04.761Z,23.70
2022-09-23T19:39:27.846Z,23.70
2022-09-23T19:41:49.454Z,23.70
2022-09-23T19:44:10.521Z,23.70
2022-09-23T19:46:33.565Z,23.70
2022-09-23T19:48:54.698Z,23.70
2022-09-23T19:51:17.227Z,23.60
2022-09-23T19:53:38.058Z,23.70
2022-09-23T19:56:03.033Z,23.70
2022-09-23T19:58:23.824Z,23.60
2022-09-23T20:00:44.824Z,23.60
2022-09-23T20:03:05.678Z,23.60
2022-09-23T20:05:29.572Z,23.60
2022-09-23T20:07:50.793Z,23.60
2022-09-23T20:10:12.175Z,23.60
2022-09-23T20:12:33.600Z,23.60
2022-09-23T20:14:54.568Z,23.70
2022-09-23T20:17:17.731Z,23.60
2022-09-23T20:19:38.888Z,23.60
2022-09-23T20:22:18.704Z,23.60
2022-09-23T20:24:39.952Z,23.60
2022-09-23T20:27:09.881Z,23.60
2022-09-23T20:29:31.078Z,23.60
2022-09-23T20:31:52.131Z,23.60
2022-09-23T20:34:13.086Z,23.60
2022-09-23T20:36:35.525Z,23.60
2022-09-23T20:38:57.487Z,23.60
2022-09-23T20:41:18.512Z,23.60
2022-09-23T20:43:39.920Z,23.60
2022-09-23T20:46:02.061Z,23.60
2022-09-23T20:48:23.728Z,23.50
2022-09-23T20:50:45.218Z,23.50
2022-09-23T20:53:06.731Z,23.60
2022-09-23T20:55:29.275Z,23.50
2022-09-23T20:57:50.405Z,23.50
2022-09-23T21:00:11.744Z,23.50
2022-09-23T21:02:33.046Z,23.50
2022-09-23T21:04:53.958Z,23.50
2022-09-23T21:07:14.853Z,23.50
2022-09-23T21:09:35.636Z,23.50
2022-09-23T21:11:57.006Z,23.50
2022-09-23T21:14:18.016Z,23.50
2022-09-23T21:16:39.084Z,23.50
2022-09-23T21:19:00.348Z,23.50
2022-09-23T21:21:22.514Z,23.50
2022-09-23T21:23:43.723Z,23.50
2022-09-23T21:26:09.031Z,23.50
2022-09-23T21:28:31.571Z,23.50
2022-09-23T21:30:53.225Z,23.50
2022-09-23T21:33:15.829Z,23.50
2022-09-23T21:35:38.425Z,23.50
2022-09-23T21:38:02.667Z,23.50
2022-09-23T21:40:42.236Z,23.50
